Time;durP1;ratioP1;P1;durP2;ratioP2;P2;SDS_P1;SDS_P2;PMS_P1;PMS_P2;Temp;Humidity;BMP_temperature;BMP_pressure;BME280_temperature;BME280_humidity;BME280_pressure;Samples;Min_cycle;Max_cycle;Signal;HPM_P1;HPM_P2
2022/08/07 00:01:53;;;;;;;8.32;5.03;;;21.30;99.90;;;;;;5245760;28;20071;-78
2022/08/07 00:04:24;;;;;;;6.65;5.25;;;21.20;99.90;;;;;;5246026;28;20028;-78
2022/08/07 00:06:54;;;;;;;6.72;5.10;;;21.10;99.90;;;;;;5247297;28;20495;-73
2022/08/07 00:09:25;;;;;;;8.50;6.03;;;21.20;99.90;;;;;;5250688;28;20107;-75
2022/08/07 00:11:56;;;;;;;7.40;5.45;;;21.10;99.90;;;;;;5251535;28;20417;-78
2022/08/07 00:14:29;;;;;;;6.32;5.07;;;21.30;99.90;;;;;;5251329;28;20111;-78
2022/08/07 00:17:01;;;;;;;6.75;5.10;;;21.30;99.90;;;;;;5251383;28;20021;-77
2022/08/07 00:19:32;;;;;;;7.07;5.45;;;21.30;99.90;;;;;;5251433;28;20021;-77
2022/08/07 00:22:03;;;;;;;7.38;5.10;;;21.30;99.90;;;;;;5251250;28;20021;-77
2022/08/07 00:24:34;;;;;;;7.82;5.47;;;21.10;99.90;;;;;;5251245;28;20024;-79
2022/08/07 00:27:05;;;;;;;7.03;5.40;;;21.30;99.90;;;;;;5251341;28;20035;-79
2022/08/07 00:29:35;;;;;;;8.57;6.10;;;21.40;99.90;;;;;;5251049;28;20039;-78
2022/08/07 00:32:06;;;;;;;7.50;6.03;;;21.40;99.90;;;;;;5250855;28;20044;-71
2022/08/07 00:34:37;;;;;;;8.75;6.13;;;21.30;99.90;;;;;;5251054;28;20032;-77
2022/08/07 00:37:08;;;;;;;7.00;5.90;;;21.10;99.90;;;;;;5251058;28;20048;-78
2022/08/07 00:39:39;;;;;;;5.95;5.00;;;21.20;99.90;;;;;;5250877;28;20017;-78
2022/08/07 00:42:09;;;;;;;6.90;5.47;;;21.30;99.90;;;;;;5250856;28;20078;-78
2022/08/07 00:44:40;;;;;;;8.25;5.68;;;21.30;99.90;;;;;;5249672;28;20020;-78
2022/08/07 00:47:11;;;;;;;7.82;6.00;;;21.50;99.90;;;;;;5250755;28;20032;-78
2022/08/07 00:49:42;;;;;;;9.00;5.90;;;21.30;99.90;;;;;;5249564;28;20827;-78
2022/08/07 00:52:13;;;;;;;8.60;6.47;;;21.30;99.90;;;;;;5250535;28;20024;-71
2022/08/07 00:54:44;;;;;;;8.82;6.22;;;21.30;99.90;;;;;;5250801;28;20119;-73
2022/08/07 00:57:16;;;;;;;8.50;6.38;;;21.30;99.90;;;;;;5250575;28;20012;-70
2022/08/07 00:59:52;;;;;;;9.15;6.78;;;21.10;99.90;;;;;;5251246;28;20020;-71
2022/08/07 01:02:28;;;;;;;9.68;6.80;;;21.10;99.90;;;;;;5250846;28;20090;-72
2022/08/07 01:05:08;;;;;;;8.10;6.47;;;21.20;99.90;;;;;;5250256;28;20051;-71
2022/08/07 01:07:43;;;;;;;13.85;8.25;;;21.20;99.90;;;;;;5251287;28;20024;-70
2022/08/07 01:10:15;;;;;;;14.45;9.32;;;21.20;99.90;;;;;;5250921;28;20418;-71
2022/08/07 01:12:47;;;;;;;11.65;7.97;;;21.40;99.90;;;;;;5250156;28;20033;-76
2022/08/07 01:15:18;;;;;;;13.05;9.48;;;21.30;99.90;;;;;;5250291;28;20078;-78
2022/08/07 01:17:49;;;;;;;12.45;8.93;;;21.40;99.90;;;;;;5250296;28;20024;-78
2022/08/07 01:20:28;;;;;;;11.32;8.13;;;21.50;99.90;;;;;;5248356;28;20028;-76
2022/08/07 01:23:00;;;;;;;13.68;9.75;;;21.20;99.90;;;;;;5250416;28;20464;-78
2022/08/07 01:25:32;;;;;;;14.73;10.35;;;21.40;99.90;;;;;;5248961;28;20024;-77
2022/08/07 01:28:03;;;;;;;13.98;9.77;;;21.40;99.90;;;;;;5250316;28;20039;-78
2022/08/07 01:30:36;;;;;;;15.15;9.43;;;21.40;99.90;;;;;;5249962;28;20029;-78
2022/08/07 01:33:07;;;;;;;13.80;9.30;;;21.40;99.90;;;;;;5248694;28;20044;-78
2022/08/07 01:35:38;;;;;;;14.13;9.27;;;21.30;99.90;;;;;;5250055;28;20017;-77
2022/08/07 01:38:09;;;;;;;15.90;10.27;;;21.70;99.90;;;;;;5249916;28;20380;-78
2022/08/07 01:40:42;;;;;;;13.70;9.07;;;21.60;99.90;;;;;;5248879;28;20028;-77
2022/08/07 01:43:13;;;;;;;14.38;9.20;;;21.50;99.90;;;;;;5249915;28;20024;-78
2022/08/07 01:45:44;;;;;;;14.27;9.50;;;21.50;99.90;;;;;;5249766;28;20024;-78
2022/08/07 01:48:15;;;;;;;13.90;9.93;;;21.50;99.90;;;;;;5249675;28;20021;-78
2022/08/07 01:50:50;;;;;;;14.38;9.77;;;21.60;99.90;;;;;;5249624;28;20013;-78
2022/08/07 01:53:24;;;;;;;15.90;10.07;;;21.70;99.90;;;;;;5249603;28;20435;-78
2022/08/07 01:56:00;;;;;;;12.88;9.40;;;21.70;99.90;;;;;;5248301;28;20530;-78
2022/08/07 01:58:36;;;;;;;14.52;9.93;;;21.60;99.90;;;;;;5249584;28;20052;-78
2022/08/07 02:01:12;;;;;;;12.82;9.48;;;21.80;99.90;;;;;;5249198;28;20020;-78
2022/08/07 02:03:50;;;;;;;14.05;10.32;;;22.00;99.90;;;;;;5249406;28;20042;-72
2022/08/07 02:06:24;;;;;;;13.50;9.32;;;22.00;99.90;;;;;;5249395;28;20423;-78
2022/08/07 02:08:56;;;;;;;13.60;9.20;;;22.20;99.90;;;;;;5249181;28;20034;-77
2022/08/07 02:11:27;;;;;;;12.82;8.95;;;22.40;99.90;;;;;;5249089;28;20384;-78
2022/08/07 02:13:58;;;;;;;11.32;8.73;;;22.20;99.90;;;;;;5249192;28;20032;-78
2022/08/07 02:16:30;;;;;;;12.18;8.65;;;22.20;99.90;;;;;;5249205;28;20029;-72
2022/08/07 02:19:03;;;;;;;11.70;8.48;;;22.30;99.90;;;;;;5248923;28;20025;-78
2022/08/07 02:21:37;;;;;;;11.95;7.97;;;22.40;99.90;;;;;;5247628;28;20082;-78
2022/08/07 02:24:09;;;;;;;12.43;8.38;;;22.50;99.90;;;;;;5248900;28;20090;-78
2022/08/07 02:26:41;;;;;;;10.25;7.10;;;22.60;99.90;;;;;;5248724;28;20021;-74
2022/08/07 02:29:12;;;;;;;11.18;7.45;;;22.70;99.90;;;;;;5248718;28;20031;-77
2022/08/07 02:31:43;;;;;;;10.32;7.75;;;22.70;99.90;;;;;;5247405;28;20108;-78
2022/08/07 02:34:15;;;;;;;10.13;6.88;;;22.70;99.90;;;;;;5248619;28;20029;-78
2022/08/07 02:36:47;;;;;;;9.18;7.05;;;22.80;99.90;;;;;;5248640;28;20025;-72
2022/08/07 02:39:19;;;;;;;8.50;6.28;;;22.80;99.90;;;;;;5248496;28;20071;-77
2022/08/07 02:41:51;;;;;;;7.85;6.03;;;22.80;99.90;;;;;;5248563;28;20020;-78
2022/08/07 02:44:23;;;;;;;7.55;5.95;;;22.90;99.90;;;;;;5248390;28;20514;-71
2022/08/07 02:46:57;;;;;;;8.23;6.43;;;22.90;99.90;;;;;;5248454;28;20020;-78
2022/08/07 02:49:28;;;;;;;8.82;6.40;;;22.90;99.90;;;;;;5248382;28;20498;-78
2022/08/07 02:52:02;;;;;;;9.48;6.05;;;22.90;99.90;;;;;;5248232;28;20086;-78
2022/08/07 02:54:36;;;;;;;8.77;6.53;;;23.00;99.90;;;;;;5248140;28;20060;-77
2022/08/07 02:57:11;;;;;;;9.23;6.00;;;22.90;99.90;;;;;;5248199;28;20031;-75
2022/08/07 02:59:47;;;;;;;8.63;5.78;;;23.00;99.90;;;;;;5248172;28;20365;-73
2022/08/07 03:02:18;;;;;;;7.40;6.15;;;23.10;99.90;;;;;;5247880;28;20056;-77
2022/08/07 03:04:51;;;;;;;6.80;5.63;;;23.20;99.90;;;;;;5248067;28;20095;-78
2022/08/07 03:07:22;;;;;;;8.30;5.32;;;23.30;99.90;;;;;;5246911;28;20033;-78
2022/08/07 03:09:53;;;;;;;6.72;5.65;;;23.20;99.90;;;;;;5248027;28;20104;-73
2022/08/07 03:12:25;;;;;;;8.98;5.47;;;23.30;99.90;;;;;;5247801;28;20045;-78
2022/08/07 03:14:57;;;;;;;6.07;4.97;;;23.40;99.90;;;;;;5247878;28;20085;-77
2022/08/07 03:17:29;;;;;;;7.03;5.32;;;23.40;99.90;;;;;;5247896;28;20027;-77
2022/08/07 03:20:01;;;;;;;7.25;5.45;;;23.40;99.90;;;;;;5247769;28;20468;-78
2022/08/07 03:22:33;;;;;;;6.05;4.80;;;23.40;99.90;;;;;;5247786;28;20496;-78
2022/08/07 03:25:04;;;;;;;8.57;5.20;;;23.50;99.90;;;;;;5247832;28;20024;-71
2022/08/07 03:27:35;;;;;;;7.28;5.22;;;23.50;99.90;;;;;;5247694;28;20069;-77
2022/08/07 03:30:07;;;;;;;6.38;4.93;;;23.60;99.90;;;;;;5246438;28;20353;-78
2022/08/07 03:32:40;;;;;;;7.63;5.30;;;23.60;99.90;;;;;;5245986;28;20048;-78
2022/08/07 03:35:22;;;;;;;6.03;4.72;;;23.80;99.90;;;;;;5247526;28;20515;-77
2022/08/07 03:38:00;;;;;;;9.35;5.70;;;23.80;99.90;;;;;;5247559;28;20103;-78
2022/08/07 03:40:31;;;;;;;12.70;6.82;;;23.90;99.90;;;;;;5247558;28;20024;-77
2022/08/07 03:43:04;;;;;;;6.50;5.25;;;23.90;99.90;;;;;;5247185;28;20029;-77
2022/08/07 03:45:35;;;;;;;6.18;5.30;;;23.90;99.90;;;;;;5247385;28;20033;-78
2022/08/07 03:48:06;;;;;;;7.90;4.95;;;23.90;99.90;;;;;;5247567;28;20560;-77
2022/08/07 03:50:37;;;;;;;6.72;4.85;;;23.90;99.90;;;;;;5247318;28;20020;-77
2022/08/07 03:53:09;;;;;;;6.45;5.00;;;24.00;99.90;;;;;;5247793;28;20041;-71
2022/08/07 03:55:41;;;;;;;5.50;4.90;;;23.90;99.90;;;;;;5247589;28;20371;-78
2022/08/07 03:58:12;;;;;;;7.00;4.50;;;24.00;99.90;;;;;;5247538;28;20029;-76
2022/08/07 04:00:45;;;;;;;7.72;4.40;;;23.90;99.90;;;;;;5247163;28;20027;-76
2022/08/07 04:03:16;;;;;;;5.35;4.20;;;23.90;99.90;;;;;;5247173;28;20049;-76
2022/08/07 04:05:49;;;;;;;6.72;4.25;;;24.00;99.90;;;;;;5247199;28;20118;-74
2022/08/07 04:08:20;;;;;;;5.50;4.18;;;24.00;99.90;;;;;;5247420;28;20112;-77
2022/08/07 04:10:52;;;;;;;6.57;4.65;;;23.90;99.90;;;;;;5247399;28;20070;-78
2022/08/07 04:13:24;;;;;;;6.38;3.88;;;23.90;99.90;;;;;;5247153;28;20067;-74
2022/08/07 04:15:54;;;;;;;6.50;4.05;;;24.00;99.90;;;;;;5247136;28;20021;-78
2022/08/07 04:18:25;;;;;;;5.72;4.63;;;24.10;99.90;;;;;;5247212;28;20468;-77
2022/08/07 04:20:56;;;;;;;4.97;4.15;;;24.10;99.90;;;;;;5247041;28;20367;-79
2022/08/07 04:23:28;;;;;;;4.97;3.78;;;24.00;99.90;;;;;;5247225;28;20017;-78
2022/08/07 04:25:59;;;;;;;4.88;3.95;;;24.00;99.90;;;;;;5247203;28;20040;-73
2022/08/07 04:28:30;;;;;;;5.43;3.55;;;24.00;99.90;;;;;;5247227;28;20376;-75
2022/08/07 04:31:01;;;;;;;5.38;4.18;;;24.00;99.90;;;;;;5246928;28;20029;-77
2022/08/07 04:33:33;;;;;;;4.82;4.03;;;24.20;99.90;;;;;;5246789;28;20028;-77
2022/08/07 04:36:07;;;;;;;7.28;4.50;;;24.30;99.90;;;;;;5247155;28;20036;-77
2022/08/07 04:38:38;;;;;;;5.82;4.32;;;24.40;99.90;;;;;;5247028;28;20021;-78
2022/08/07 04:41:09;;;;;;;5.97;4.47;;;24.50;99.90;;;;;;5246947;28;20031;-78
2022/08/07 04:43:43;;;;;;;4.03;3.60;;;24.60;99.90;;;;;;5246931;28;20012;-77
2022/08/07 04:46:37;;;;;;;4.60;3.45;;;24.70;99.90;;;;;;5246774;28;20029;-79
2022/08/07 04:49:07;;;;;;;4.53;3.42;;;24.80;99.90;;;;;;5246933;28;20491;-79
2022/08/07 04:52:06;;;;;;;4.57;3.50;;;24.70;99.90;;;;;;5245304;28;20029;-78
2022/08/07 04:54:58;;;;;;;5.25;4.35;;;24.60;99.90;;;;;;5247005;28;20029;-76
2022/08/07 04:57:46;;;;;;;4.93;3.67;;;24.80;99.90;;;;;;5250692;28;20024;-79
2022/08/07 05:00:41;;;;;;;4.13;3.40;;;24.80;99.90;;;;;;5250834;28;20376;-77
2022/08/07 05:03:33;;;;;;;4.40;3.10;;;24.70;99.90;;;;;;5250542;28;20105;-73
2022/08/07 05:06:08;;;;;;;5.82;3.05;;;24.80;99.90;;;;;;5250559;28;20075;-78
2022/08/07 05:08:42;;;;;;;3.30;2.80;;;24.70;99.90;;;;;;5250653;28;20490;-78
2022/08/07 05:11:22;;;;;;;3.30;2.72;;;24.80;99.90;;;;;;5249251;28;20380;-78
2022/08/07 05:13:59;;;;;;;5.05;2.70;;;24.90;99.90;;;;;;5250232;28;20044;-77
2022/08/07 05:16:34;;;;;;;4.30;3.10;;;25.00;99.90;;;;;;5250372;28;20028;-73
2022/08/07 05:19:13;;;;;;;5.25;3.75;;;25.00;99.90;;;;;;5250443;28;20032;-78
2022/08/07 05:21:52;;;;;;;3.80;2.87;;;25.20;99.90;;;;;;5250515;28;20492;-78
2022/08/07 05:24:25;;;;;;;3.50;2.78;;;25.10;99.90;;;;;;5250347;28;20082;-77
2022/08/07 05:26:58;;;;;;;5.13;2.83;;;25.50;99.90;;;;;;5250196;28;20166;-78
2022/08/07 05:29:29;;;;;;;4.15;2.67;;;25.50;99.90;;;;;;5250173;28;20078;-75
2022/08/07 05:32:01;;;;;;;4.05;2.70;;;25.40;99.90;;;;;;5249950;28;20476;-78
2022/08/07 05:34:39;;;;;;;3.35;2.58;;;25.40;99.90;;;;;;5250314;28;20029;-78
2022/08/07 05:37:12;;;;;;;6.35;3.08;;;25.70;99.90;;;;;;5250158;28;20020;-78
2022/08/07 05:39:43;;;;;;;4.40;3.00;;;25.80;99.90;;;;;;5250074;28;20024;-78
2022/08/07 05:42:14;;;;;;;2.40;2.15;;;25.70;99.90;;;;;;5249875;28;20035;-78
2022/08/07 05:44:45;;;;;;;4.28;2.50;;;25.70;99.90;;;;;;5248644;28;20020;-71
2022/08/07 05:47:18;;;;;;;3.85;2.50;;;25.70;99.90;;;;;;5250031;28;20016;-78
2022/08/07 05:49:50;;;;;;;2.95;2.28;;;25.60;99.90;;;;;;5250040;28;20040;-78
2022/08/07 05:52:21;;;;;;;3.42;2.85;;;25.90;99.90;;;;;;5249752;28;20020;-79
2022/08/07 05:54:52;;;;;;;4.35;2.92;;;26.30;99.90;;;;;;5249686;28;20603;-78
2022/08/07 05:57:24;;;;;;;5.63;2.97;;;26.50;99.90;;;;;;5249828;28;20031;-78
2022/08/07 05:59:59;;;;;;;3.25;2.53;;;26.40;99.90;;;;;;5249926;28;20468;-79
2022/08/07 06:02:32;;;;;;;3.28;2.67;;;26.20;99.90;;;;;;5249394;28;20036;-78
2022/08/07 06:05:11;;;;;;;4.25;3.08;;;26.00;99.90;;;;;;5249554;28;20036;-78
2022/08/07 06:07:43;;;;;;;4.18;3.20;;;26.00;99.90;;;;;;5249314;28;20021;-77
2022/08/07 06:10:14;;;;;;;3.40;2.80;;;25.90;99.90;;;;;;5249713;28;20029;-79
2022/08/07 06:12:45;;;;;;;5.07;2.97;;;25.80;99.90;;;;;;5249426;28;20039;-77
2022/08/07 06:15:17;;;;;;;3.45;2.78;;;25.80;99.90;;;;;;5249577;28;20110;-78
2022/08/07 06:17:50;;;;;;;5.68;3.47;;;25.70;99.90;;;;;;5249151;28;20097;-78
2022/08/07 06:20:22;;;;;;;4.03;3.17;;;25.70;99.90;;;;;;5249080;28;20508;-78
2022/08/07 06:22:54;;;;;;;6.47;3.55;;;25.70;99.90;;;;;;5248987;28;20456;-78
2022/08/07 06:25:25;;;;;;;4.75;3.20;;;25.80;99.90;;;;;;5249366;28;20032;-78
2022/08/07 06:28:08;;;;;;;4.90;3.70;;;25.80;99.90;;;;;;5249172;28;20484;-78
2022/08/07 06:30:39;;;;;;;3.75;2.95;;;26.20;99.90;;;;;;5248934;28;20025;-71
2022/08/07 06:33:10;;;;;;;4.80;3.05;;;26.30;99.90;;;;;;5248585;28;20044;-79
2022/08/07 06:35:40;;;;;;;4.10;3.30;;;26.20;99.90;;;;;;5248647;28;20483;-80
2022/08/07 06:38:11;;;;;;;4.30;3.47;;;26.20;99.90;;;;;;5248630;28;20547;-79
2022/08/07 06:40:48;;;;;;;4.88;3.67;;;26.40;99.90;;;;;;5248747;28;20025;-80
2022/08/07 06:43:22;;;;;;;4.85;3.42;;;26.40;99.90;;;;;;5248596;28;20078;-74
2022/08/07 06:45:53;;;;;;;4.80;3.42;;;26.50;99.90;;;;;;5248508;28;20412;-78
2022/08/07 06:48:24;;;;;;;7.45;3.72;;;26.30;99.90;;;;;;5248518;28;20177;-74
2022/08/07 06:50:59;;;;;;;4.22;3.38;;;26.80;99.90;;;;;;5248865;28;20024;-76
2022/08/07 06:53:30;;;;;;;4.90;3.38;;;26.80;99.90;;;;;;5248179;28;20040;-71
2022/08/07 06:56:04;;;;;;;4.22;3.30;;;26.80;99.90;;;;;;5248530;28;20017;-75
2022/08/07 06:58:35;;;;;;;4.93;3.83;;;26.90;99.90;;;;;;5248203;28;20480;-75
2022/08/07 07:01:09;;;;;;;4.07;3.33;;;26.80;99.90;;;;;;5247855;28;20024;-75
2022/08/07 07:03:41;;;;;;;3.92;3.53;;;26.30;99.90;;;;;;5246069;28;20060;-71
2022/08/07 07:06:12;;;;;;;5.57;3.15;;;26.00;99.90;;;;;;5235469;28;20133;-72
2022/08/07 07:08:43;;;;;;;3.88;3.45;;;26.30;99.90;;;;;;5235846;28;20048;-73
2022/08/07 07:11:14;;;;;;;4.93;3.80;;;26.30;99.90;;;;;;5237866;28;20460;-76
2022/08/07 07:13:50;;;;;;;3.35;2.85;;;26.50;99.90;;;;;;5238126;28;20027;-71
2022/08/07 07:16:24;;;;;;;4.13;3.10;;;26.50;99.90;;;;;;5238162;28;20839;-70
2022/08/07 07:19:02;;;;;;;4.63;3.33;;;26.10;99.90;;;;;;5232146;28;20032;-75
2022/08/07 07:21:37;;;;;;;4.40;3.47;;;26.60;99.90;;;;;;5235898;28;20461;-75
2022/08/07 07:24:09;;;;;;;4.40;3.13;;;26.40;99.90;;;;;;5243069;28;20024;-70
2022/08/07 07:26:43;;;;;;;5.68;3.78;;;26.00;99.90;;;;;;5247791;28;20376;-75
2022/08/07 07:29:15;;;;;;;5.22;4.10;;;25.50;99.90;;;;;;5246484;28;20537;-75
2022/08/07 07:31:49;;;;;;;5.88;3.35;;;25.70;99.90;;;;;;5247386;28;20032;-75
2022/08/07 07:34:29;;;;;;;6.70;4.10;;;26.20;99.90;;;;;;5247545;28;20021;-76
2022/08/07 07:37:03;;;;;;;6.50;4.00;;;26.40;99.90;;;;;;5244036;28;20021;-71
2022/08/07 07:39:36;;;;;;;4.00;3.58;;;26.20;99.90;;;;;;5243812;28;20464;-77
2022/08/07 07:42:09;;;;;;;4.97;3.53;;;26.10;99.90;;;;;;5247111;28;20472;-72
2022/08/07 07:44:44;;;;;;;4.88;3.40;;;26.10;99.90;;;;;;5234742;28;20408;-73
2022/08/07 07:47:16;;;;;;;6.53;3.92;;;25.90;99.90;;;;;;5234163;28;20055;-76
2022/08/07 07:49:48;;;;;;;5.97;4.18;;;25.90;99.90;;;;;;5236042;28;20032;-76
2022/08/07 07:52:21;;;;;;;5.43;4.07;;;25.70;99.90;;;;;;5237479;28;20033;-75
2022/08/07 07:54:54;;;;;;;5.50;3.97;;;25.90;99.90;;;;;;5229598;28;20503;-77
2022/08/07 07:57:25;;;;;;;7.53;4.28;;;26.10;99.90;;;;;;5226600;28;20063;-76
2022/08/07 07:59:57;;;;;;;6.78;3.55;;;26.30;99.90;;;;;;5237973;28;20426;-77
2022/08/07 08:02:29;;;;;;;4.00;3.53;;;26.20;99.90;;;;;;5225246;28;20045;-73
2022/08/07 08:05:03;;;;;;;6.10;3.58;;;26.10;99.90;;;;;;5226586;28;20044;-78
2022/08/07 08:07:36;;;;;;;4.75;3.50;;;26.20;99.90;;;;;;5226479;28;20047;-77
2022/08/07 08:10:08;;;;;;;4.85;3.60;;;26.20;99.90;;;;;;5226493;28;20025;-75
2022/08/07 08:12:40;;;;;;;4.82;3.42;;;26.20;99.90;;;;;;5226322;28;20029;-73
2022/08/07 08:15:11;;;;;;;5.03;4.13;;;26.20;99.90;;;;;;5226362;28;20021;-74
2022/08/07 08:17:43;;;;;;;5.45;4.10;;;26.10;99.90;;;;;;5228396;28;20457;-75
2022/08/07 08:20:16;;;;;;;4.50;3.53;;;26.50;99.90;;;;;;5247887;28;20028;-74
2022/08/07 08:28:31;;;;;;;6.75;4.38;;;26.70;99.90;;;;;;5241847;28;20039;-73
2022/08/07 08:31:04;;;;;;;7.45;4.57;;;26.60;99.90;;;;;;5240079;28;20024;-70
2022/08/07 08:33:37;;;;;;;6.07;4.18;;;26.90;99.90;;;;;;5241482;28;20369;-74
2022/08/07 08:36:10;;;;;;;4.97;3.38;;;26.80;99.90;;;;;;5240305;28;20020;-75
2022/08/07 08:38:44;;;;;;;5.32;3.85;;;26.80;99.90;;;;;;5239686;28;20465;-77
2022/08/07 08:41:21;;;;;;;4.97;3.63;;;26.90;99.90;;;;;;5246326;28;20017;-72
2022/08/07 08:44:27;;;;;;;5.40;4.22;;;26.80;99.90;;;;;;5241933;28;20024;-71
2022/08/07 08:46:58;;;;;;;5.30;3.90;;;27.70;99.90;;;;;;5223954;28;20028;-75
2022/08/07 08:49:43;;;;;;;5.82;3.50;;;27.90;99.90;;;;;;5239444;28;20025;-73
2022/08/07 08:52:59;;;;;;;6.63;4.30;;;28.00;99.90;;;;;;5241096;28;20032;-76
2022/08/07 08:56:00;;;;;;;5.05;3.25;;;28.30;99.90;;;;;;5239120;28;20083;-76
2022/08/07 08:58:42;;;;;;;5.50;3.67;;;27.60;99.90;;;;;;5238643;28;20036;-78
2022/08/07 09:01:19;;;;;;;5.47;3.33;;;27.40;99.90;;;;;;5238068;28;20028;-75
2022/08/07 09:03:58;;;;;;;4.85;3.55;;;27.30;99.90;;;;;;5240206;28;20100;-71
2022/08/07 09:06:32;;;;;;;;;;;27.30;99.90;;;;;;5238997;28;20025;-73
2022/08/07 09:09:19;;;;;;;5.47;3.95;;;27.20;99.90;;;;;;5239489;28;19957;-77
2022/08/07 09:12:04;;;;;;;5.00;4.15;;;27.10;99.90;;;;;;5229601;28;20047;-75
2022/08/07 09:14:45;;;;;;;9.70;4.60;;;27.20;99.90;;;;;;5229663;28;20113;-78
2022/08/07 09:17:47;;;;;;;7.05;4.00;;;27.20;99.90;;;;;;5229591;28;20036;-73
2022/08/07 09:20:38;;;;;;;6.32;3.65;;;27.60;99.90;;;;;;5229559;28;20025;-71
2022/08/07 09:23:25;;;;;;;7.40;4.32;;;27.20;99.90;;;;;;5240269;28;20029;-75
2022/08/07 09:26:13;;;;;;;8.43;4.07;;;27.60;99.90;;;;;;5238922;28;20032;-74
2022/08/07 09:28:54;;;;;;;6.43;4.25;;;28.50;99.90;;;;;;5230142;28;20025;-74
2022/08/07 09:31:52;;;;;;;6.35;4.30;;;28.30;99.90;;;;;;5229167;28;20116;-78
2022/08/07 09:34:42;;;;;;;4.60;3.33;;;28.10;99.90;;;;;;5229010;28;20473;-78
2022/08/07 09:37:32;;;;;;;5.95;3.78;;;27.10;99.90;;;;;;5229031;28;20049;-77
2022/08/07 09:40:37;;;;;;;5.82;3.35;;;27.30;99.90;;;;;;5229152;28;20606;-78
2022/08/07 09:43:28;;;;;;;5.10;3.15;;;27.90;99.90;;;;;;5229352;28;20025;-77
2022/08/07 09:46:31;;;;;;;4.43;3.17;;;26.90;99.90;;;;;;5229528;28;20063;-74
2022/08/07 09:49:39;;;;;;;4.78;3.03;;;26.80;99.90;;;;;;5229359;28;20033;-74
2022/08/07 09:52:32;;;;;;;4.85;3.33;;;26.80;99.90;;;;;;5229146;28;20028;-78
2022/08/07 09:55:53;;;;;;;4.95;3.58;;;26.70;99.90;;;;;;5228949;28;20040;-78
2022/08/07 09:58:42;;;;;;;4.05;3.15;;;28.10;99.90;;;;;;5230411;28;20040;-76
2022/08/07 10:01:21;;;;;;;;;;;28.70;99.90;;;;;;5249945;28;20064;-72
2022/08/07 10:04:17;;;;;;;7.88;3.45;;;29.00;99.90;;;;;;5250391;28;19917;-71
2022/08/07 10:06:51;;;;;;;4.05;3.40;;;28.30;99.90;;;;;;5249235;28;20039;-77
2022/08/07 10:09:33;;;;;;;3.97;3.10;;;28.40;99.90;;;;;;5249179;28;20047;-77
2022/08/07 10:12:35;;;;;;;4.20;3.20;;;29.00;99.90;;;;;;5249227;28;20033;-75
2022/08/07 10:15:25;;;;;;;5.28;3.13;;;28.90;99.90;;;;;;5248912;28;20036;-72
2022/08/07 10:18:08;;;;;;;7.38;3.25;;;28.60;99.90;;;;;;5246736;28;20119;-75
2022/08/07 10:21:26;;;;;;;7.40;3.47;;;28.10;99.90;;;;;;5238819;28;20020;-72
2022/08/07 10:24:18;;;;;;;5.05;3.20;;;28.10;99.90;;;;;;5241643;28;20468;-73
2022/08/07 10:27:18;;;;;;;4.70;3.33;;;28.00;99.90;;;;;;5234293;28;20140;-77
2022/08/07 10:30:12;;;;;;;4.75;3.22;;;27.80;99.90;;;;;;5228047;28;20032;-78
2022/08/07 10:32:53;;;;;;;6.07;3.20;;;27.90;99.90;;;;;;5242605;28;20033;-77
2022/08/07 10:35:48;;;;;;;5.10;2.80;;;28.10;99.90;;;;;;5248583;28;20028;-76
2022/08/07 10:38:38;;;;;;;4.45;3.15;;;27.80;99.90;;;;;;5247073;28;20052;-74
2022/08/07 10:41:17;;;;;;;4.47;3.30;;;28.10;99.90;;;;;;5245014;28;20032;-76
2022/08/07 10:43:48;;;;;;;5.70;2.95;;;28.70;99.90;;;;;;5235477;28;20025;-74
2022/08/07 10:46:24;;;;;;;4.03;2.78;;;28.60;99.90;;;;;;5234188;28;20032;-70
2022/08/07 10:49:19;;;;;;;2.75;2.42;;;28.70;99.90;;;;;;5232342;28;20113;-74
2022/08/07 10:52:05;;;;;;;3.88;2.45;;;28.30;99.90;;;;;;5239084;28;20116;-75
2022/08/07 10:54:42;;;;;;;5.35;2.58;;;28.70;99.90;;;;;;5239443;28;20029;-76
2022/08/07 10:57:38;;;;;;;4.75;2.35;;;28.60;99.90;;;;;;5238369;28;20033;-79
2022/08/07 11:00:15;;;;;;;5.80;2.92;;;28.80;99.90;;;;;;5233935;28;20032;-76
2022/08/07 11:03:02;;;;;;;3.65;2.40;;;28.10;99.90;;;;;;5227142;28;20076;-71
2022/08/07 11:05:57;;;;;;;3.13;2.30;;;27.90;99.90;;;;;;5227616;28;20036;-74
2022/08/07 11:08:50;;;;;;;4.97;2.53;;;27.90;99.90;;;;;;5236316;28;20033;-79
2022/08/07 11:11:30;;;;;;;3.85;2.58;;;27.90;99.90;;;;;;5237004;28;20364;-71
2022/08/07 11:14:19;;;;;;;4.13;2.85;;;27.90;99.90;;;;;;5233954;28;20052;-77
2022/08/07 11:17:02;;;;;;;3.70;2.47;;;28.20;99.90;;;;;;5232399;28;20035;-77
2022/08/07 11:19:54;;;;;;;2.90;2.53;;;28.30;99.90;;;;;;5237466;28;20111;-76
2022/08/07 11:22:30;;;;;;;4.15;2.70;;;28.20;99.90;;;;;;5229680;28;20387;-76
2022/08/07 11:25:17;;;;;;;6.07;3.28;;;28.30;99.90;;;;;;5232267;28;20024;-75
2022/08/07 11:28:10;;;;;;;2.70;2.30;;;28.10;99.90;;;;;;5239524;28;20108;-75
2022/08/07 11:31:05;;;;;;;4.43;2.60;;;27.90;99.90;;;;;;5245535;28;20028;-71
2022/08/07 11:33:50;;;;;;;3.30;2.67;;;28.00;99.90;;;;;;5235587;28;20098;-73
2022/08/07 11:36:56;;;;;;;3.28;2.83;;;27.70;99.90;;;;;;5238573;28;20033;-78
2022/08/07 11:39:45;;;;;;;2.90;2.28;;;28.20;99.90;;;;;;5232503;28;20029;-75
2022/08/07 11:42:18;;;;;;;;;;;28.30;99.90;;;;;;5232370;28;20039;-69
2022/08/07 11:45:23;;;;;;;4.57;2.45;;;28.10;99.90;;;;;;5229517;28;19908;-71
2022/08/07 11:48:12;;;;;;;3.85;2.75;;;28.50;99.90;;;;;;5235336;28;20059;-77
2022/08/07 11:51:36;;;;;;;4.75;2.50;;;28.80;99.90;;;;;;5244028;28;20059;-76
2022/08/07 11:54:58;;;;;;;4.38;2.17;;;28.70;99.90;;;;;;5244909;28;20182;-77
2022/08/07 11:57:43;;;;;;;3.55;2.47;;;28.90;99.90;;;;;;5234283;28;20095;-79
2022/08/07 12:00:37;;;;;;;2.90;2.13;;;28.80;99.90;;;;;;5234348;28;20045;-77
2022/08/07 12:03:26;;;;;;;4.40;2.38;;;29.10;99.90;;;;;;5226316;28;20045;-77
2022/08/07 12:06:15;;;;;;;3.38;2.60;;;28.90;99.90;;;;;;5240148;28;20036;-79
2022/08/07 12:09:00;;;;;;;4.72;2.70;;;29.40;99.90;;;;;;5244189;28;20102;-78
2022/08/07 12:11:41;;;;;;;2.72;2.50;;;29.00;99.90;;;;;;5226452;28;20032;-77
2022/08/07 12:14:25;;;;;;;5.07;2.92;;;28.30;99.90;;;;;;5225689;28;20041;-76
2022/08/07 12:17:11;;;;;;;5.05;3.20;;;28.30;99.90;;;;;;5226546;28;20404;-77
2022/08/07 12:20:01;;;;;;;3.45;2.72;;;29.10;99.90;;;;;;5226494;28;20033;-73
2022/08/07 12:22:54;;;;;;;4.43;3.35;;;28.90;99.90;;;;;;5226302;28;20029;-75
2022/08/07 12:25:51;;;;;;;7.65;3.20;;;28.40;99.90;;;;;;5226229;28;20056;-77
2022/08/07 12:28:47;;;;;;;4.82;3.10;;;28.90;99.90;;;;;;5226373;28;20033;-78
2022/08/07 12:31:37;;;;;;;4.63;3.30;;;28.50;99.90;;;;;;5226190;28;20120;-77
2022/08/07 12:34:10;;;;;;;7.78;3.38;;;28.70;99.90;;;;;;5231608;28;20037;-72
2022/08/07 12:36:43;;;;;;;5.32;3.55;;;28.90;99.90;;;;;;5233199;28;20146;-76
2022/08/07 12:39:18;;;;;;;5.30;3.10;;;28.60;99.90;;;;;;5233755;28;20102;-74
2022/08/07 12:41:52;;;;;;;4.80;3.10;;;28.70;99.90;;;;;;5235357;28;20358;-76
2022/08/07 12:44:24;;;;;;;6.32;3.35;;;28.50;99.90;;;;;;5233304;28;20033;-72
2022/08/07 12:47:12;;;;;;;5.88;3.35;;;28.50;99.90;;;;;;5235342;28;20063;-73
2022/08/07 12:50:17;;;;;;;3.65;2.90;;;29.30;99.90;;;;;;5235394;28;20032;-76
2022/08/07 12:52:54;;;;;;;4.00;2.80;;;28.50;99.90;;;;;;5234885;28;20089;-70
2022/08/07 12:55:35;;;;;;;4.88;2.90;;;28.30;99.90;;;;;;5237218;28;20020;-72
2022/08/07 12:58:08;;;;;;;3.80;3.00;;;28.00;99.90;;;;;;5232289;28;20059;-76
2022/08/07 13:00:52;;;;;;;5.63;3.22;;;28.20;99.90;;;;;;5240029;28;20103;-73
2022/08/07 13:03:37;;;;;;;6.45;2.97;;;28.30;99.90;;;;;;5230642;28;20106;-77
2022/08/07 13:06:39;;;;;;;4.97;3.53;;;28.90;99.90;;;;;;5225839;28;20096;-76
2022/08/07 13:09:33;;;;;;;6.13;3.30;;;28.90;99.90;;;;;;5227956;28;20029;-74
2022/08/07 13:12:36;;;;;;;4.82;3.17;;;29.30;99.90;;;;;;5237720;28;20388;-77
2022/08/07 13:15:34;;;;;;;4.68;3.50;;;28.90;99.90;;;;;;5246275;28;20044;-73
2022/08/07 13:18:47;;;;;;;5.65;3.15;;;28.50;99.90;;;;;;5250217;28;20040;-75
2022/08/07 13:21:24;;;;;;;4.35;2.67;;;28.90;99.90;;;;;;5249825;28;20032;-71
2022/08/07 13:24:07;;;;;;;3.25;2.95;;;29.30;99.90;;;;;;5249903;28;20063;-76
2022/08/07 13:26:47;;;;;;;4.97;3.42;;;28.40;99.90;;;;;;5250140;28;20024;-70
2022/08/07 13:29:46;;;;;;;4.65;3.33;;;28.10;99.90;;;;;;5248742;28;20068;-72
2022/08/07 13:32:31;;;;;;;4.95;3.03;;;27.90;99.90;;;;;;5249666;28;20025;-72
2022/08/07 13:35:15;;;;;;;6.18;3.35;;;28.10;99.90;;;;;;5248412;28;20040;-77
2022/08/07 13:37:59;;;;;;;6.85;3.83;;;27.90;99.90;;;;;;5249700;28;20058;-80
2022/08/07 13:40:41;;;;;;;4.90;2.90;;;27.70;99.90;;;;;;5249649;28;20032;-71
2022/08/07 13:43:14;;;;;;;4.45;3.35;;;27.90;99.90;;;;;;5249715;28;20028;-77
2022/08/07 13:45:51;;;;;;;4.80;2.90;;;27.90;99.90;;;;;;5249670;28;20020;-72
2022/08/07 13:48:24;;;;;;;4.47;3.03;;;28.00;99.90;;;;;;5249625;28;20352;-71
2022/08/07 13:50:57;;;;;;;6.63;4.07;;;27.80;99.90;;;;;;5249367;28;20107;-72